Live from Altenrhein
LIVE
LSZR 230050Z AUTO VRB01KT 9999 FEW080 12/11 Q1018

People´s C-Office:

T: +41 (0)71 858 51 65

E: c-office@peoples.ch

Private and Business Aviation

Facts, C-Office, Services and Fuelprice

Infos LSZR

Facts for Pilots.

Ground Services

Service for Business & Private Aviation.

Services

To make you feel welcome.

Fees & Charges

Taxes and handling charges in Altenrhein.

Handling request

We provide you a tailor ground handling service.

Jet pricing tool

Calculate and estimate your flight.

Why to Altenrhein?

Your advantages of the Airport.